createdAt,value
2023-05-17T00:00:47.083Z,102266.09
2023-05-17T00:03:16.531Z,102263.41
2023-05-17T00:05:45.421Z,102255.16
2023-05-17T00:08:14.727Z,102255.16
2023-05-17T00:10:44.037Z,102253.69
2023-05-17T00:13:13.341Z,102253.69
2023-05-17T00:15:42.197Z,102262.97
2023-05-17T00:18:11.198Z,102260.28
2023-05-17T00:20:40.662Z,102251.53
2023-05-17T00:23:09.606Z,102253.47
2023-05-17T00:25:38.340Z,102260.06
2023-05-17T00:28:07.251Z,102257.38
2023-05-17T00:30:36.092Z,102260.06
2023-05-17T00:33:04.991Z,102263.97
2023-05-17T00:35:33.994Z,102273.22
2023-05-17T00:38:02.201Z,102274.69
2023-05-17T00:40:31.207Z,102266.41
2023-05-17T00:42:59.970Z,102266.41
2023-05-17T00:45:29.497Z,102259.63
2023-05-17T00:47:59.168Z,102258.16
2023-05-17T00:50:27.395Z,102243.56
2023-05-17T00:52:56.005Z,102246.00
2023-05-17T00:55:24.535Z,102250.63
2023-05-17T00:57:53.500Z,102252.56
2023-05-17T01:00:22.948Z,102241.84
2023-05-17T01:02:51.789Z,102249.16
2023-05-17T01:05:20.223Z,102249.16
2023-05-17T01:07:48.986Z,102241.63
2023-05-17T01:10:17.816Z,102246.25
2023-05-17T01:12:47.094Z,102253.06
2023-05-17T01:15:15.500Z,102255.53
2023-05-17T01:17:44.910Z,102256.75
2023-05-17T01:20:14.335Z,102259.44
2023-05-17T01:22:43.675Z,102248.00
2023-05-17T01:25:12.034Z,102250.69
2023-05-17T01:27:40.976Z,102245.09
2023-05-17T01:30:10.228Z,102250.44
2023-05-17T01:32:39.522Z,102257.25
2023-05-17T01:35:09.212Z,102250.44
2023-05-17T01:37:38.054Z,102249.00
2023-05-17T01:40:06.855Z,102249.00
2023-05-17T01:42:35.433Z,102245.09
2023-05-17T01:45:03.588Z,102247.56
2023-05-17T01:47:32.692Z,102252.91
2023-05-17T01:50:01.693Z,102251.44
2023-05-17T01:52:30.596Z,102237.31
2023-05-17T01:54:59.841Z,102240.00
2023-05-17T01:57:28.252Z,102237.31
2023-05-17T01:59:56.747Z,102236.59
2023-05-17T02:02:26.172Z,102240.50
2023-05-17T02:04:55.711Z,102236.38
2023-05-17T02:07:23.676Z,102243.19
2023-05-17T02:09:52.569Z,102241.75
2023-05-17T02:12:21.626Z,102247.09
2023-05-17T02:14:50.828Z,102245.63
2023-05-17T02:17:20.415Z,102241.47
2023-05-17T02:19:50.162Z,102248.31
2023-05-17T02:22:19.223Z,102245.63
2023-05-17T02:24:48.176Z,102256.34
2023-05-17T02:27:17.275Z,102249.50
2023-05-17T02:29:46.782Z,102266.31
2023-05-17T02:32:16.057Z,102261.69
2023-05-17T02:34:47.188Z,102260.22
2023-05-17T02:37:15.585Z,102261.69
2023-05-17T02:39:45.753Z,102263.63
2023-05-17T02:42:15.116Z,102267.03
2023-05-17T02:44:44.448Z,102265.56
2023-05-17T02:47:14.214Z,102271.66
2023-05-17T02:49:43.404Z,102270.94
2023-05-17T02:52:12.560Z,102277.03
2023-05-17T02:54:41.243Z,102277.03
2023-05-17T02:57:09.747Z,102268.25
2023-05-17T02:59:38.239Z,102272.41
2023-05-17T03:02:07.763Z,102271.66
2023-05-17T03:04:36.970Z,102272.94
2023-05-17T03:07:07.106Z,102274.34
2023-05-17T03:09:36.513Z,102280.97
2023-05-17T03:12:05.513Z,102287.00
2023-05-17T03:14:36.006Z,102280.22
2023-05-17T03:17:05.144Z,102287.00
2023-05-17T03:19:35.815Z,102293.81
2023-05-17T03:22:04.412Z,102292.34
2023-05-17T03:24:34.217Z,102300.38
2023-05-17T03:27:02.801Z,102303.06
2023-05-17T03:29:32.587Z,102303.06
2023-05-17T03:32:01.645Z,102313.78
2023-05-17T03:34:30.395Z,102313.78
2023-05-17T03:36:58.663Z,102313.78
2023-05-17T03:39:27.867Z,102323.06
2023-05-17T03:41:57.279Z,102325.75
2023-05-17T03:44:26.717Z,102321.59
2023-05-17T03:46:55.567Z,102324.47
2023-05-17T03:49:25.580Z,102324.47
2023-05-17T03:51:55.087Z,102328.41
2023-05-17T03:54:23.996Z,102325.94
2023-05-17T03:56:52.457Z,102332.78
2023-05-17T03:59:21.281Z,102335.47
2023-05-17T04:01:49.687Z,102339.59
2023-05-17T04:04:18.181Z,102339.59
2023-05-17T04:06:47.160Z,102335.69
2023-05-17T04:09:17.267Z,102338.59
2023-05-17T04:11:45.840Z,102345.41
2023-05-17T04:14:14.504Z,102343.97
2023-05-17T04:16:42.951Z,102345.63
2023-05-17T04:19:12.077Z,102349.78
2023-05-17T04:21:41.287Z,102345.84
2023-05-17T04:24:09.840Z,102348.00
2023-05-17T04:26:38.872Z,102353.38
2023-05-17T04:29:08.173Z,102356.78
2023-05-17T04:31:37.857Z,102363.09
2023-05-17T04:34:06.875Z,102367.72
2023-05-17T04:36:35.906Z,102367.22
2023-05-17T04:39:05.037Z,102376.72
2023-05-17T04:41:34.222Z,102376.72
2023-05-17T04:44:06.051Z,102378.88
2023-05-17T04:46:37.438Z,102383.03
2023-05-17T04:49:06.314Z,102383.25
2023-05-17T04:51:34.297Z,102388.63
2023-05-17T04:54:03.799Z,102391.53
2023-05-17T04:56:31.989Z,102396.91
2023-05-17T04:58:59.913Z,102393.00
2023-05-17T05:01:29.039Z,102401.25
2023-05-17T05:03:59.354Z,102401.25
2023-05-17T05:06:29.897Z,102401.25
2023-05-17T05:08:59.231Z,102407.06
2023-05-17T05:11:27.798Z,102417.78
2023-05-17T05:13:56.410Z,102418.00
2023-05-17T05:16:24.965Z,102420.91
2023-05-17T05:18:53.823Z,102422.59
2023-05-17T05:21:23.637Z,102424.53
2023-05-17T05:23:52.877Z,102424.09
2023-05-17T05:26:21.447Z,102430.88
2023-05-17T05:28:50.768Z,102429.66
2023-05-17T05:31:20.256Z,102432.34
2023-05-17T05:33:56.926Z,102433.78
2023-05-17T05:36:26.721Z,102429.91
2023-05-17T05:38:55.969Z,102440.63
2023-05-17T05:41:24.230Z,102442.06
2023-05-17T05:43:52.904Z,102450.09
2023-05-17T05:46:21.574Z,102448.88
2023-05-17T05:48:50.455Z,102451.78
2023-05-17T05:51:22.043Z,102457.88
2023-05-17T05:53:52.855Z,102461.50
2023-05-17T05:56:21.687Z,102471.22
2023-05-17T05:58:50.814Z,102464.84
2023-05-17T06:01:19.652Z,102471.91
2023-05-17T06:03:49.028Z,102469.22
2023-05-17T06:06:18.634Z,102468.97
2023-05-17T06:08:48.300Z,102477.97
2023-05-17T06:11:17.273Z,102479.41
2023-05-17T06:13:46.936Z,102481.59
2023-05-17T06:16:15.848Z,102484.53
2023-05-17T06:18:44.805Z,102482.78
2023-05-17T06:21:16.351Z,102488.34
2023-05-17T06:23:45.195Z,102491.03
2023-05-17T06:26:15.781Z,102497.41
2023-05-17T06:28:47.640Z,102496.66
2023-05-17T06:31:19.758Z,102502.31
2023-05-17T06:33:50.076Z,102498.22
2023-05-17T06:36:18.170Z,102498.72
2023-05-17T06:38:46.429Z,102503.84
2023-05-17T06:41:15.405Z,102499.47
2023-05-17T06:43:44.552Z,102501.91
2023-05-17T06:46:12.798Z,102505.59
2023-05-17T06:48:42.202Z,102508.28
2023-05-17T06:51:11.210Z,102512.16
2023-05-17T06:53:40.459Z,102513.66
2023-05-17T06:56:09.869Z,102512.41
2023-05-17T06:58:39.177Z,102516.81
2023-05-17T07:01:08.012Z,102514.63
2023-05-17T07:03:38.048Z,102518.53
2023-05-17T07:06:07.468Z,102523.16
2023-05-17T07:08:36.748Z,102517.81
2023-05-17T07:11:06.339Z,102532.44
2023-05-17T07:13:35.479Z,102526.34
2023-05-17T07:16:03.861Z,102530.72
2023-05-17T07:18:33.075Z,102533.59
2023-05-17T07:21:02.020Z,102536.00
2023-05-17T07:23:31.303Z,102531.78
2023-05-17T07:26:00.686Z,102540.81
2023-05-17T07:28:29.696Z,102545.72
2023-05-17T07:30:58.579Z,102540.91
2023-05-17T07:33:28.086Z,102546.84
2023-05-17T07:35:57.565Z,102543.00
2023-05-17T07:38:27.002Z,102547.66
2023-05-17T07:40:56.314Z,102548.34
2023-05-17T07:43:25.185Z,102552.78
2023-05-17T07:45:54.648Z,102550.38
2023-05-17T07:48:24.168Z,102553.56
2023-05-17T07:50:53.745Z,102558.41
2023-05-17T07:53:22.836Z,102557.56
2023-05-17T07:55:51.345Z,102567.91
2023-05-17T07:58:24.476Z,102555.38
2023-05-17T08:00:59.771Z,102557.31
2023-05-17T08:03:29.155Z,102562.81
2023-05-17T08:05:58.511Z,102559.97
2023-05-17T08:08:27.364Z,102558.84
2023-05-17T08:10:56.798Z,102559.22
2023-05-17T08:13:26.107Z,102556.69
2023-05-17T08:16:01.651Z,102563.38
2023-05-17T08:18:41.605Z,102564.72
2023-05-17T08:21:10.445Z,102568.50
2023-05-17T08:23:39.878Z,102570.88
2023-05-17T08:26:09.236Z,102569.59
2023-05-17T08:28:38.647Z,102563.09
2023-05-17T08:31:07.932Z,102570.00
2023-05-17T08:33:37.362Z,102563.31
2023-05-17T08:36:06.837Z,102576.84
2023-05-17T08:38:36.308Z,102566.06
2023-05-17T08:41:05.786Z,102567.22
2023-05-17T08:43:35.120Z,102567.38
2023-05-17T08:46:04.580Z,102565.88
2023-05-17T08:48:33.669Z,102568.03
2023-05-17T08:51:02.573Z,102572.50
2023-05-17T08:53:31.866Z,102572.47
2023-05-17T08:56:01.271Z,102570.72
2023-05-17T08:58:32.348Z,102577.44
2023-05-17T09:01:02.132Z,102583.47
2023-05-17T09:03:31.913Z,102579.56
2023-05-17T09:06:04.468Z,102576.66
2023-05-17T09:08:32.790Z,102581.75
2023-05-17T09:11:02.142Z,102587.56
2023-05-17T09:13:31.056Z,102586.94
2023-05-17T09:16:00.408Z,102589.66
2023-05-17T09:18:29.395Z,102590.63
2023-05-17T09:20:58.810Z,102595.38
2023-05-17T09:23:27.726Z,102590.94
2023-05-17T09:25:57.138Z,102586.28
2023-05-17T09:28:26.112Z,102588.91
2023-05-17T09:30:55.609Z,102590.75
2023-05-17T09:33:24.834Z,102591.09
2023-05-17T09:35:53.597Z,102600.69
2023-05-17T09:38:24.203Z,102594.22
2023-05-17T09:40:54.794Z,102600.25
2023-05-17T09:43:24.181Z,102597.16
2023-05-17T09:45:53.557Z,102593.81
2023-05-17T09:48:26.328Z,102596.44
2023-05-17T09:50:54.726Z,102590.25
2023-05-17T09:53:23.638Z,102605.66
2023-05-17T09:55:53.131Z,102597.63
2023-05-17T09:58:22.060Z,102606.97
2023-05-17T10:00:51.444Z,102612.88
2023-05-17T10:03:20.394Z,102606.97
2023-05-17T10:05:49.760Z,102600.81
2023-05-17T10:08:18.725Z,102602.34
2023-05-17T10:10:47.520Z,102597.31
2023-05-17T10:13:16.881Z,102604.84
2023-05-17T10:15:45.854Z,102602.47
2023-05-17T10:18:15.245Z,102608.13
2023-05-17T10:20:44.164Z,102613.63
2023-05-17T10:23:13.531Z,102607.72
2023-05-17T10:25:42.724Z,102607.94
2023-05-17T10:28:11.509Z,102607.25
2023-05-17T10:30:40.817Z,102618.16
2023-05-17T10:33:09.889Z,102611.53
2023-05-17T10:35:42.437Z,102606.81
2023-05-17T10:38:11.301Z,102612.06
2023-05-17T10:40:40.242Z,102608.97
2023-05-17T10:43:09.553Z,102606.50
2023-05-17T10:45:39.017Z,102601.56
2023-05-17T10:48:07.897Z,102605.28
2023-05-17T10:50:37.658Z,102605.00
2023-05-17T10:53:07.408Z,102597.47
2023-05-17T10:55:36.983Z,102607.13
2023-05-17T10:58:06.492Z,102601.50
2023-05-17T11:00:35.127Z,102606.94
2023-05-17T11:03:03.114Z,102601.03
2023-05-17T11:05:33.296Z,102604.19
2023-05-17T11:08:03.263Z,102601.63
2023-05-17T11:10:31.526Z,102601.03
2023-05-17T11:13:00.411Z,102592.16
2023-05-17T11:15:29.558Z,102596.16
2023-05-17T11:18:00.002Z,102586.00
2023-05-17T11:20:28.953Z,102597.38
2023-05-17T11:22:57.864Z,102593.97
2023-05-17T11:25:27.207Z,102595.66
2023-05-17T11:28:00.264Z,102600.13
2023-05-17T11:30:29.298Z,102601.59
2023-05-17T11:32:58.587Z,102590.72
2023-05-17T11:35:28.074Z,102585.94
2023-05-17T11:37:57.056Z,102582.63
2023-05-17T11:40:25.933Z,102599.44
2023-05-17T11:42:54.832Z,102595.53
2023-05-17T11:45:24.888Z,102601.34
2023-05-17T11:47:53.505Z,102606.78
2023-05-17T11:50:22.740Z,102606.28
2023-05-17T11:52:50.963Z,102609.47
2023-05-17T11:55:20.306Z,102593.94
2023-05-17T11:57:49.287Z,102599.91
2023-05-17T12:00:18.302Z,102598.13
2023-05-17T12:02:47.199Z,102601.66
2023-05-17T12:05:16.085Z,102604.50
2023-05-17T12:07:44.678Z,102599.00
2023-05-17T12:10:13.021Z,102603.13
2023-05-17T12:12:42.856Z,102603.13
2023-05-17T12:15:12.751Z,102597.63
2023-05-17T12:17:42.224Z,102595.81
2023-05-17T12:20:11.153Z,102583.84
2023-05-17T12:22:40.156Z,102591.38
2023-05-17T12:25:09.537Z,102590.25
2023-05-17T12:27:38.370Z,102584.28
2023-05-17T12:30:07.324Z,102582.50
2023-05-17T12:32:37.860Z,102589.00
2023-05-17T12:35:09.251Z,102587.22
2023-05-17T12:37:40.155Z,102591.78
2023-05-17T12:40:09.659Z,102592.63
2023-05-17T12:42:39.167Z,102585.63
2023-05-17T12:45:08.757Z,102570.63
2023-05-17T12:47:37.986Z,102576.66
2023-05-17T12:50:06.837Z,102581.53
2023-05-17T12:52:36.221Z,102577.22
2023-05-17T12:55:05.197Z,102590.41
2023-05-17T12:57:33.773Z,102580.75
2023-05-17T13:00:02.491Z,102578.88
2023-05-17T13:02:31.862Z,102587.56
2023-05-17T13:05:00.897Z,102578.22
2023-05-17T13:07:29.888Z,102578.06
2023-05-17T13:09:59.395Z,102583.03
2023-05-17T13:12:28.712Z,102584.56
2023-05-17T13:14:57.605Z,102570.84
2023-05-17T13:17:26.594Z,102566.16
2023-05-17T13:19:55.552Z,102571.28
2023-05-17T13:22:26.002Z,102569.31
2023-05-17T13:24:55.753Z,102572.53
2023-05-17T13:27:25.930Z,102579.09
2023-05-17T13:29:55.431Z,102575.94
2023-05-17T13:32:24.493Z,102581.78
2023-05-17T13:34:53.493Z,102579.84
2023-05-17T13:37:22.370Z,102580.19
2023-05-17T13:39:51.333Z,102573.09
2023-05-17T13:42:20.137Z,102575.53
2023-05-17T13:44:49.472Z,102571.28
2023-05-17T13:47:18.725Z,102573.94
2023-05-17T13:49:48.077Z,102563.91
2023-05-17T13:52:17.464Z,102552.28
2023-05-17T13:54:46.909Z,102565.28
2023-05-17T13:57:15.778Z,102556.22
2023-05-17T13:59:45.787Z,102571.28
2023-05-17T14:02:15.103Z,102570.66
2023-05-17T14:04:43.267Z,102551.41
2023-05-17T14:07:12.759Z,102560.22
2023-05-17T14:09:41.741Z,102562.44
2023-05-17T14:12:11.183Z,102556.94
2023-05-17T14:14:40.042Z,102551.16
2023-05-17T14:17:09.435Z,102557.56
2023-05-17T14:19:38.313Z,102555.38
2023-05-17T14:22:07.792Z,102553.13
2023-05-17T14:24:37.266Z,102551.72
2023-05-17T14:27:06.651Z,102558.47
2023-05-17T14:29:35.499Z,102553.16
2023-05-17T14:32:04.976Z,102552.94
2023-05-17T14:34:33.970Z,102563.84
2023-05-17T14:37:03.315Z,102560.28
2023-05-17T14:39:32.134Z,102566.41
2023-05-17T14:42:00.994Z,102568.56
2023-05-17T14:44:30.250Z,102568.16
2023-05-17T14:46:59.516Z,102568.13
2023-05-17T14:49:28.393Z,102569.53
2023-05-17T14:51:57.795Z,102568.94
2023-05-17T14:54:27.264Z,102564.38
2023-05-17T14:56:56.481Z,102572.78
2023-05-17T14:59:25.731Z,102561.03
2023-05-17T15:01:55.207Z,102564.25
2023-05-17T15:04:24.701Z,102572.81
2023-05-17T15:06:54.254Z,102577.09
2023-05-17T15:09:23.721Z,102579.22
2023-05-17T15:11:52.794Z,102575.41
2023-05-17T15:14:21.062Z,102570.69
2023-05-17T15:16:50.227Z,102571.16
2023-05-17T15:19:18.861Z,102571.41
2023-05-17T15:21:47.826Z,102562.34
2023-05-17T15:24:17.872Z,102571.81
2023-05-17T15:26:46.253Z,102578.38
2023-05-17T15:29:15.180Z,102570.41
2023-05-17T15:31:44.050Z,102564.97
2023-05-17T15:34:13.548Z,102567.06
2023-05-17T15:36:46.993Z,102560.88
2023-05-17T15:39:16.401Z,102563.44
2023-05-17T15:41:45.316Z,102572.22
2023-05-17T15:44:14.777Z,102562.78
2023-05-17T15:46:44.131Z,102564.66
2023-05-17T15:49:13.479Z,102560.09
2023-05-17T15:51:42.427Z,102565.59
2023-05-17T15:54:11.966Z,102564.25
2023-05-17T15:56:41.488Z,102563.88
2023-05-17T15:59:10.828Z,102564.91
2023-05-17T16:01:40.173Z,102561.56
2023-05-17T16:04:09.678Z,102550.91
2023-05-17T16:06:39.181Z,102553.94
2023-05-17T16:09:08.581Z,102562.84
2023-05-17T16:11:38.063Z,102558.28
2023-05-17T16:14:07.309Z,102549.75
2023-05-17T16:16:35.940Z,102554.94
2023-05-17T16:19:05.198Z,102548.94
2023-05-17T16:21:34.618Z,102541.69
2023-05-17T16:24:03.563Z,102540.56
2023-05-17T16:26:32.961Z,102540.13
2023-05-17T16:29:02.129Z,102539.19
2023-05-17T16:31:30.347Z,102542.72
2023-05-17T16:33:59.752Z,102553.28
2023-05-17T16:36:28.362Z,102553.56
2023-05-17T16:38:57.065Z,102553.88
2023-05-17T16:41:25.940Z,102531.91
2023-05-17T16:43:54.874Z,102543.69
2023-05-17T16:46:23.556Z,102548.66
2023-05-17T16:48:52.344Z,102542.38
2023-05-17T16:51:21.697Z,102552.19
2023-05-17T16:53:51.012Z,102555.88
2023-05-17T16:56:20.502Z,102554.44
2023-05-17T16:58:49.653Z,102553.50
2023-05-17T17:01:18.938Z,102552.34
2023-05-17T17:03:48.343Z,102558.75
2023-05-17T17:06:17.849Z,102562.66
2023-05-17T17:08:46.740Z,102561.25
2023-05-17T17:11:16.117Z,102556.53
2023-05-17T17:13:44.889Z,102558.03
2023-05-17T17:16:14.295Z,102567.75
2023-05-17T17:18:43.793Z,102578.22
2023-05-17T17:21:13.157Z,102560.19
2023-05-17T17:23:42.491Z,102571.69
2023-05-17T17:26:11.583Z,102569.06
2023-05-17T17:28:39.952Z,102574.00
2023-05-17T17:31:08.797Z,102577.72
2023-05-17T17:33:37.781Z,102578.53
2023-05-17T17:36:06.721Z,102578.84
2023-05-17T17:38:36.179Z,102585.94
2023-05-17T17:41:05.057Z,102585.50
2023-05-17T17:43:33.946Z,102584.34
2023-05-17T17:46:02.908Z,102580.00
2023-05-17T17:48:32.398Z,102576.38
2023-05-17T17:51:01.353Z,102586.69
2023-05-17T17:53:30.733Z,102583.75
2023-05-17T17:55:59.518Z,102583.31
2023-05-17T17:58:28.829Z,102584.31
2023-05-17T18:00:58.199Z,102588.28
2023-05-17T18:03:28.689Z,102583.91
2023-05-17T18:05:57.595Z,102581.72
2023-05-17T18:08:26.970Z,102582.22
2023-05-17T18:10:56.548Z,102579.34
2023-05-17T18:13:26.133Z,102587.41
2023-05-17T18:15:55.000Z,102588.41
2023-05-17T18:18:23.891Z,102585.47
2023-05-17T18:20:52.962Z,102586.00
2023-05-17T18:23:21.161Z,102587.94
2023-05-17T18:25:50.682Z,102590.44
2023-05-17T18:28:26.896Z,102593.13
2023-05-17T18:31:06.650Z,102586.06
2023-05-17T18:33:35.656Z,102588.53
2023-05-17T18:36:03.921Z,102589.53
2023-05-17T18:38:32.578Z,102591.97
2023-05-17T18:41:01.335Z,102584.94
2023-05-17T18:43:30.626Z,102590.31
2023-05-17T18:45:59.683Z,102596.69
2023-05-17T18:48:28.050Z,102596.50
2023-05-17T18:50:57.700Z,102596.03
2023-05-17T18:53:27.139Z,102599.94
2023-05-17T18:55:56.539Z,102606.34
2023-05-17T18:58:25.500Z,102602.69
2023-05-17T19:00:54.951Z,102605.88
2023-05-17T19:03:24.270Z,102601.50
2023-05-17T19:05:53.537Z,102597.16
2023-05-17T19:08:22.720Z,102614.25
2023-05-17T19:10:51.174Z,102607.22
2023-05-17T19:13:19.619Z,102620.19
2023-05-17T19:15:48.255Z,102624.09
2023-05-17T19:18:17.257Z,102620.97
2023-05-17T19:20:46.203Z,102626.09
2023-05-17T19:23:15.513Z,102627.09
2023-05-17T19:25:44.322Z,102634.91
2023-05-17T19:28:13.542Z,102637.38
2023-05-17T19:30:42.939Z,102630.34
2023-05-17T19:33:11.952Z,102630.81
2023-05-17T19:35:41.497Z,102636.69
2023-05-17T19:38:10.298Z,102629.66
2023-05-17T19:40:39.584Z,102634.78
2023-05-17T19:43:08.456Z,102637.47
2023-05-17T19:45:37.699Z,102633.09
2023-05-17T19:48:06.598Z,102642.38
2023-05-17T19:50:36.902Z,102642.13
2023-05-17T19:53:08.257Z,102638.00
2023-05-17T19:55:39.016Z,102632.41
2023-05-17T19:58:08.351Z,102638.28
2023-05-17T20:00:37.753Z,102644.13
2023-05-17T20:03:07.784Z,102631.94
2023-05-17T20:05:37.238Z,102637.31
2023-05-17T20:08:06.575Z,102643.91
2023-05-17T20:10:35.889Z,102640.97
2023-05-17T20:13:04.727Z,102638.06
2023-05-17T20:15:34.119Z,102636.63
2023-05-17T20:18:03.300Z,102635.16
2023-05-17T20:20:32.300Z,102636.91
2023-05-17T20:23:01.806Z,102642.25
2023-05-17T20:25:30.848Z,102637.41
2023-05-17T20:27:59.888Z,102638.63
2023-05-17T20:30:29.564Z,102635.69
2023-05-17T20:32:58.646Z,102639.59
2023-05-17T20:35:28.086Z,102634.53
2023-05-17T20:37:57.069Z,102636.22
2023-05-17T20:40:26.030Z,102636.22
2023-05-17T20:42:55.405Z,102627.22
2023-05-17T20:45:24.357Z,102635.75
2023-05-17T20:47:53.768Z,102630.38
2023-05-17T20:50:23.318Z,102630.16
2023-05-17T20:52:52.259Z,102637.47
2023-05-17T20:55:21.158Z,102636.75
2023-05-17T20:57:49.971Z,102633.13
2023-05-17T21:00:19.086Z,102642.38
2023-05-17T21:02:48.274Z,102637.00
2023-05-17T21:05:17.159Z,102640.22
2023-05-17T21:07:46.698Z,102638.75
2023-05-17T21:10:16.168Z,102643.84
2023-05-17T21:12:45.024Z,102651.19
2023-05-17T21:15:17.304Z,102649.00
2023-05-17T21:17:47.026Z,102651.41
2023-05-17T21:20:15.943Z,102647.31
2023-05-17T21:22:45.374Z,102655.34
2023-05-17T21:25:14.007Z,102655.09
2023-05-17T21:27:42.472Z,102659.00
2023-05-17T21:30:11.146Z,102653.41
2023-05-17T21:32:40.517Z,102653.19
2023-05-17T21:35:09.935Z,102652.94
2023-05-17T21:37:39.384Z,102654.16
2023-05-17T21:40:08.855Z,102646.13
2023-05-17T21:42:37.789Z,102652.72
2023-05-17T21:45:06.861Z,102655.16
2023-05-17T21:47:36.556Z,102652.47
2023-05-17T21:50:05.443Z,102651.03
2023-05-17T21:52:34.548Z,102650.78
2023-05-17T21:55:03.254Z,102652.00
2023-05-17T21:57:32.625Z,102652.00
2023-05-17T22:00:01.921Z,102649.09
2023-05-17T22:02:34.767Z,102646.41
2023-05-17T22:05:03.712Z,102652.25
2023-05-17T22:07:33.169Z,102653.00
2023-05-17T22:10:02.133Z,102646.16
2023-05-17T22:12:31.057Z,102651.53
2023-05-17T22:15:00.000Z,102650.09
2023-05-17T22:17:35.131Z,102645.94
2023-05-17T22:20:12.161Z,102643.25
2023-05-17T22:22:41.657Z,102641.81
2023-05-17T22:25:11.155Z,102643.03
2023-05-17T22:27:40.578Z,102648.41
2023-05-17T22:30:09.930Z,102644.25
2023-05-17T22:32:38.925Z,102653.50
2023-05-17T22:35:07.557Z,102650.09
2023-05-17T22:37:36.909Z,102645.25
2023-05-17T22:40:06.383Z,102661.31
2023-05-17T22:42:35.642Z,102647.66
2023-05-17T22:45:04.758Z,102653.03
2023-05-17T22:47:33.508Z,102651.56
2023-05-17T22:50:02.517Z,102650.13
2023-05-17T22:52:31.144Z,102654.75
2023-05-17T22:55:00.140Z,102664.00
2023-05-17T22:57:29.550Z,102657.91
2023-05-17T22:59:58.947Z,102667.19
2023-05-17T23:02:28.336Z,102664.25
2023-05-17T23:04:57.211Z,102665.47
2023-05-17T23:07:26.537Z,102659.88
2023-05-17T23:09:55.376Z,102669.13
2023-05-17T23:12:24.134Z,102667.94
2023-05-17T23:14:53.423Z,102665.00
2023-05-17T23:17:22.795Z,102663.78
2023-05-17T23:19:52.028Z,102670.34
2023-05-17T23:22:20.949Z,102671.59
2023-05-17T23:24:49.763Z,102670.88
2023-05-17T23:27:19.126Z,102674.25
2023-05-17T23:29:48.092Z,102671.59
2023-05-17T23:32:17.406Z,102672.56
2023-05-17T23:34:46.801Z,102671.09
2023-05-17T23:37:16.348Z,102665.75
2023-05-17T23:39:45.290Z,102665.75
2023-05-17T23:42:14.381Z,102669.66
2023-05-17T23:44:43.183Z,102668.16
2023-05-17T23:47:11.835Z,102664.06
2023-05-17T23:49:40.484Z,102667.44
2023-05-17T23:52:09.938Z,102659.91
2023-05-17T23:54:39.506Z,102659.16
2023-05-17T23:57:08.457Z,102659.66
2023-05-17T23:59:37.769Z,102650.19
